createdAt,value
2018-12-15T00:01:35.809Z,55.10
2018-12-15T00:04:06.179Z,58.97
2018-12-15T00:06:36.652Z,63.23
2018-12-15T00:09:08.387Z,60.87
2018-12-15T00:11:39.131Z,60.60
2018-12-15T00:14:09.692Z,65.47
2018-12-15T00:16:40.522Z,62.30
2018-12-15T00:19:11.427Z,62.83
2018-12-15T00:21:42.594Z,58.70
2018-12-15T00:24:13.263Z,61.00
2018-12-15T00:26:43.689Z,57.57
2018-12-15T00:29:15.423Z,63.40
2018-12-15T00:31:46.377Z,65.23
2018-12-15T00:34:16.906Z,64.63
2018-12-15T00:36:47.826Z,60.90
2018-12-15T00:39:18.966Z,59.90
2018-12-15T00:41:49.645Z,60.47
2018-12-15T00:44:20.455Z,60.57
2018-12-15T00:46:51.474Z,65.57
2018-12-15T00:49:22.999Z,67.93
2018-12-15T00:51:53.520Z,65.47
2018-12-15T00:54:24.481Z,63.70
2018-12-15T00:56:55.125Z,60.63
2018-12-15T00:59:25.748Z,59.50
2018-12-15T01:01:56.389Z,58.90
2018-12-15T01:04:27.334Z,55.00
2018-12-15T01:06:58.029Z,61.80
2018-12-15T01:09:30.916Z,60.03
2018-12-15T01:12:01.236Z,63.00
2018-12-15T01:14:32.368Z,61.97
2018-12-15T01:17:02.762Z,60.40
2018-12-15T01:19:33.573Z,61.10
2018-12-15T01:22:04.372Z,61.90
2018-12-15T01:24:35.575Z,63.27
2018-12-15T01:27:06.599Z,62.60
2018-12-15T01:29:38.509Z,63.37
2018-12-15T01:32:09.022Z,66.97
2018-12-15T01:34:39.486Z,57.10
2018-12-15T01:37:10.209Z,58.70
2018-12-15T01:39:41.774Z,59.70
2018-12-15T01:42:13.020Z,58.27
2018-12-15T01:44:43.992Z,61.30
2018-12-15T01:47:14.850Z,56.77
2018-12-15T01:49:46.490Z,51.97
2018-12-15T01:52:17.087Z,52.63
2018-12-15T01:54:47.419Z,58.97
2018-12-15T01:57:17.882Z,63.67
2018-12-15T01:59:48.992Z,60.60
2018-12-15T02:02:19.513Z,57.83
2018-12-15T02:04:49.923Z,58.37
2018-12-15T02:07:21.087Z,58.30
2018-12-15T02:09:55.593Z,62.70
2018-12-15T02:12:26.428Z,59.47
2018-12-15T02:14:57.322Z,63.33
2018-12-15T02:17:33.458Z,61.90
2018-12-15T02:20:04.836Z,61.57
2018-12-15T02:22:35.955Z,66.23
2018-12-15T02:25:06.714Z,64.07
2018-12-15T02:27:37.316Z,58.20
2018-12-15T02:30:08.888Z,56.83
2018-12-15T02:32:39.697Z,53.63
2018-12-15T02:35:10.635Z,62.47
2018-12-15T02:37:41.567Z,60.23
2018-12-15T02:40:13.056Z,59.17
2018-12-15T02:42:43.759Z,60.97
2018-12-15T02:45:14.790Z,60.97
2018-12-15T02:47:45.825Z,57.17
2018-12-15T02:50:17.127Z,59.43
2018-12-15T02:52:47.921Z,53.53
2018-12-15T02:55:18.490Z,54.80
2018-12-15T02:57:49.238Z,55.80
2018-12-15T03:00:20.575Z,59.53
2018-12-15T03:02:51.488Z,56.07
2018-12-15T03:05:21.800Z,57.83
2018-12-15T03:07:52.049Z,55.77
2018-12-15T03:10:23.113Z,53.47
2018-12-15T03:12:53.324Z,54.80
2018-12-15T03:15:24.046Z,52.87
2018-12-15T03:17:55.230Z,49.87
2018-12-15T03:20:26.282Z,54.30
2018-12-15T03:22:56.889Z,56.43
2018-12-15T03:25:28.050Z,53.77
2018-12-15T03:27:59.166Z,54.23
2018-12-15T03:30:30.238Z,49.40
2018-12-15T03:33:00.909Z,53.60
2018-12-15T03:35:31.558Z,48.10
2018-12-15T03:38:02.651Z,50.37
2018-12-15T03:40:33.522Z,46.97
2018-12-15T03:43:03.996Z,51.10
2018-12-15T03:45:34.971Z,48.67
2018-12-15T03:48:05.888Z,51.13
2018-12-15T03:50:37.846Z,51.60
2018-12-15T03:53:08.298Z,49.03
2018-12-15T03:55:38.943Z,49.80
2018-12-15T03:58:09.536Z,61.03
2018-12-15T04:00:40.492Z,53.33
2018-12-15T04:03:10.727Z,49.17
2018-12-15T04:05:41.401Z,49.63
2018-12-15T04:08:11.699Z,58.80
2018-12-15T04:10:43.404Z,54.10
2018-12-15T04:13:14.134Z,53.73
2018-12-15T04:15:44.653Z,50.93
2018-12-15T04:18:15.064Z,51.10
2018-12-15T04:20:46.367Z,61.07
2018-12-15T04:23:17.253Z,57.90
2018-12-15T04:25:48.060Z,63.17
2018-12-15T04:28:18.688Z,64.30
2018-12-15T04:30:49.842Z,59.50
2018-12-15T04:33:20.511Z,60.67
2018-12-15T04:35:51.034Z,57.30
2018-12-15T04:38:21.530Z,54.80
2018-12-15T04:40:52.805Z,54.90
2018-12-15T04:43:23.599Z,50.37
2018-12-15T04:45:54.440Z,48.70
2018-12-15T04:48:26.046Z,52.73
2018-12-15T04:50:57.262Z,50.73
2018-12-15T04:53:28.690Z,51.27
2018-12-15T04:55:59.289Z,47.97
2018-12-15T04:58:29.780Z,49.47
2018-12-15T05:01:01.564Z,56.03
2018-12-15T05:03:32.328Z,49.73
2018-12-15T05:06:03.160Z,55.10
2018-12-15T05:08:33.556Z,55.30
2018-12-15T05:11:05.791Z,50.73
2018-12-15T05:13:36.444Z,49.87
2018-12-15T05:16:07.474Z,50.80
2018-12-15T05:18:38.432Z,52.37
2018-12-15T05:21:10.143Z,58.17
2018-12-15T05:23:41.318Z,54.70
2018-12-15T05:26:11.718Z,57.17
2018-12-15T05:28:42.131Z,56.73
2018-12-15T05:31:13.790Z,56.00
2018-12-15T05:33:44.004Z,54.40
2018-12-15T05:36:15.269Z,54.10
2018-12-15T05:38:45.650Z,45.43
2018-12-15T05:41:17.356Z,46.73
2018-12-15T05:43:48.010Z,50.30
2018-12-15T05:46:19.037Z,64.40
2018-12-15T05:48:49.788Z,64.20
2018-12-15T05:51:21.136Z,54.90
2018-12-15T05:53:51.526Z,53.70
2018-12-15T05:56:22.316Z,43.00
2018-12-15T05:58:52.905Z,51.07
2018-12-15T06:01:23.586Z,50.77
2018-12-15T06:03:53.931Z,47.87
2018-12-15T06:06:24.723Z,51.73
2018-12-15T06:08:55.093Z,49.40
2018-12-15T06:11:26.054Z,49.30
2018-12-15T06:13:56.138Z,60.60
2018-12-15T06:16:26.583Z,75.70
2018-12-15T06:18:57.287Z,65.97
2018-12-15T06:21:28.810Z,61.47
2018-12-15T06:23:59.545Z,66.60
2018-12-15T06:26:29.854Z,58.37
2018-12-15T06:28:59.984Z,57.60
2018-12-15T06:31:30.374Z,61.67
2018-12-15T06:34:01.041Z,65.27
2018-12-15T06:36:31.535Z,73.90
2018-12-15T06:39:01.951Z,78.00
2018-12-15T06:41:32.893Z,76.60
2018-12-15T06:44:03.156Z,70.97
2018-12-15T06:46:33.581Z,77.40
2018-12-15T06:49:03.918Z,75.97
2018-12-15T06:51:37.444Z,76.07
2018-12-15T06:54:07.910Z,89.93
2018-12-15T06:56:38.220Z,78.80
2018-12-15T06:59:08.884Z,82.30
2018-12-15T07:01:40.406Z,77.13
2018-12-15T07:04:10.952Z,65.37
2018-12-15T07:06:42.125Z,79.70
2018-12-15T07:09:12.830Z,76.00
2018-12-15T07:11:44.150Z,70.70
2018-12-15T07:14:14.490Z,64.00
2018-12-15T07:16:44.982Z,74.77
2018-12-15T07:19:16.062Z,71.40
2018-12-15T07:21:47.637Z,74.53
2018-12-15T07:24:17.864Z,60.10
2018-12-15T07:26:48.258Z,54.70
2018-12-15T07:29:18.575Z,46.27
2018-12-15T07:31:49.497Z,48.00
2018-12-15T07:34:19.955Z,42.97
2018-12-15T07:36:50.656Z,40.60
2018-12-15T07:39:21.191Z,47.67
2018-12-15T07:41:51.844Z,43.67
2018-12-15T07:44:22.372Z,42.93
2018-12-15T07:46:52.694Z,45.50
2018-12-15T07:49:22.924Z,55.10
2018-12-15T07:51:53.564Z,54.23
2018-12-15T07:54:23.816Z,48.80
2018-12-15T07:56:54.105Z,66.73
2018-12-15T07:59:24.531Z,62.43
2018-12-15T08:01:56.169Z,53.67
2018-12-15T08:04:26.181Z,85.10
2018-12-15T08:06:56.492Z,58.07
2018-12-15T08:09:26.958Z,59.87
2018-12-15T08:12:02.446Z,57.30
2018-12-15T08:14:32.899Z,63.70
2018-12-15T08:17:03.409Z,50.33
2018-12-15T08:19:34.092Z,52.80
2018-12-15T08:22:04.781Z,60.87
2018-12-15T08:24:35.172Z,69.20
2018-12-15T08:27:05.544Z,62.87
2018-12-15T08:29:35.953Z,55.30
2018-12-15T08:32:06.672Z,73.70
2018-12-15T08:34:37.139Z,85.17
2018-12-15T08:37:07.544Z,85.70
2018-12-15T08:39:37.634Z,91.13
2018-12-15T08:42:08.428Z,101.57
2018-12-15T08:44:38.700Z,94.83
2018-12-15T08:47:09.015Z,92.80
2018-12-15T08:49:39.510Z,94.50
2018-12-15T08:52:10.912Z,98.23
2018-12-15T08:54:41.443Z,109.60
2018-12-15T08:57:16.015Z,100.37
2018-12-15T08:59:46.373Z,92.17
2018-12-15T09:02:17.175Z,86.97
2018-12-15T09:04:47.706Z,104.57
2018-12-15T09:07:17.852Z,90.33
2018-12-15T09:09:48.503Z,94.00
2018-12-15T09:12:21.088Z,99.80
2018-12-15T09:14:52.354Z,94.67
2018-12-15T09:17:23.080Z,90.60
2018-12-15T09:19:53.585Z,85.50
2018-12-15T09:22:24.190Z,87.00
2018-12-15T09:24:55.645Z,88.57
2018-12-15T09:27:26.972Z,98.33
2018-12-15T09:29:57.218Z,92.20
2018-12-15T09:32:28.745Z,113.10
2018-12-15T09:34:59.779Z,101.80
2018-12-15T09:37:30.687Z,96.93
2018-12-15T09:40:01.324Z,74.20
2018-12-15T09:42:32.900Z,96.13
2018-12-15T09:45:03.796Z,79.63
2018-12-15T09:47:34.235Z,72.27
2018-12-15T09:50:04.962Z,67.50
2018-12-15T09:52:35.700Z,71.87
2018-12-15T09:55:06.558Z,78.47
2018-12-15T09:57:37.408Z,94.23
2018-12-15T10:00:08.040Z,113.23
2018-12-15T10:02:39.756Z,93.33
2018-12-15T10:05:10.489Z,89.90
2018-12-15T10:07:41.979Z,88.13
2018-12-15T10:10:12.885Z,92.27
2018-12-15T10:12:44.343Z,106.30
2018-12-15T10:15:14.715Z,97.27
2018-12-15T10:17:45.076Z,103.40
2018-12-15T10:20:15.535Z,91.30
2018-12-15T10:22:47.397Z,92.00
2018-12-15T10:25:17.667Z,102.90
2018-12-15T10:27:47.987Z,105.23
2018-12-15T10:30:23.253Z,108.10
2018-12-15T10:32:55.223Z,102.03
2018-12-15T10:35:26.144Z,87.97
2018-12-15T10:37:56.583Z,100.60
2018-12-15T10:40:26.788Z,109.13
2018-12-15T10:42:57.668Z,98.67
2018-12-15T10:45:28.046Z,101.37
2018-12-15T10:47:58.598Z,97.70
2018-12-15T10:50:29.158Z,96.57
2018-12-15T10:53:00.228Z,91.53
2018-12-15T10:55:37.412Z,78.33
2018-12-15T10:58:07.633Z,80.57
2018-12-15T11:01:45.271Z,82.60
2018-12-15T11:04:15.888Z,105.03
2018-12-15T11:06:46.276Z,95.17
2018-12-15T11:09:16.936Z,109.13
2018-12-15T11:11:47.155Z,109.37
2018-12-15T11:14:21.465Z,110.87
2018-12-15T11:16:51.960Z,120.47
2018-12-15T11:19:22.207Z,94.23
2018-12-15T11:21:52.703Z,75.00
2018-12-15T11:24:23.259Z,78.93
2018-12-15T11:26:54.001Z,80.53
2018-12-15T11:29:24.141Z,55.90
2018-12-15T11:31:54.440Z,58.50
2018-12-15T11:34:26.004Z,57.80
2018-12-15T11:36:56.421Z,58.10
2018-12-15T11:39:27.156Z,67.97
2018-12-15T11:41:57.812Z,68.80
2018-12-15T11:44:28.927Z,67.73
2018-12-15T11:46:59.463Z,65.57
2018-12-15T11:49:30.195Z,69.80
2018-12-15T11:52:00.615Z,66.80
2018-12-15T11:54:31.588Z,66.40
2018-12-15T11:57:02.359Z,82.43
2018-12-15T11:59:33.232Z,81.57
2018-12-15T12:02:03.983Z,92.17
2018-12-15T12:04:34.903Z,96.60
2018-12-15T12:07:05.516Z,104.30
2018-12-15T12:09:36.013Z,94.30
2018-12-15T12:12:06.795Z,111.10
2018-12-15T12:14:37.344Z,104.97
2018-12-15T12:17:07.650Z,108.30
2018-12-15T12:19:38.069Z,111.40
2018-12-15T12:22:08.579Z,99.73
2018-12-15T12:24:39.004Z,107.10
2018-12-15T12:27:09.596Z,108.00
2018-12-15T12:29:40.180Z,119.27
2018-12-15T12:32:10.612Z,120.87
2018-12-15T12:34:41.731Z,118.97
2018-12-15T12:37:12.259Z,116.30
2018-12-15T12:39:42.951Z,109.07
2018-12-15T12:42:13.343Z,110.07
2018-12-15T12:44:44.122Z,122.67
2018-12-15T12:47:14.262Z,107.27
2018-12-15T12:49:44.834Z,111.57
2018-12-15T12:52:15.354Z,106.90
2018-12-15T12:54:46.783Z,98.30
2018-12-15T12:57:17.479Z,103.67
2018-12-15T12:59:47.779Z,97.53
2018-12-15T13:02:18.056Z,124.50
2018-12-15T13:04:48.618Z,109.07
2018-12-15T13:07:19.014Z,117.37
2018-12-15T13:09:49.439Z,117.30
2018-12-15T13:12:20.111Z,106.50
2018-12-15T13:14:50.980Z,100.03
2018-12-15T13:17:21.412Z,101.00
2018-12-15T13:19:52.058Z,120.47
2018-12-15T13:22:22.626Z,109.87
2018-12-15T13:24:53.342Z,99.97
2018-12-15T13:27:23.959Z,96.00
2018-12-15T13:29:54.917Z,86.17
2018-12-15T13:32:25.549Z,101.63
2018-12-15T13:34:56.272Z,98.53
2018-12-15T13:37:26.907Z,88.23
2018-12-15T13:39:57.462Z,74.80
2018-12-15T13:42:28.072Z,92.37
2018-12-15T13:44:59.975Z,98.00
2018-12-15T13:47:30.419Z,89.80
2018-12-15T13:50:01.180Z,96.87
2018-12-15T13:52:31.840Z,92.87
2018-12-15T13:55:02.774Z,94.37
2018-12-15T13:57:33.324Z,99.73
2018-12-15T14:00:04.270Z,92.03
2018-12-15T14:02:34.529Z,93.13
2018-12-15T14:05:05.167Z,100.40
2018-12-15T14:07:35.434Z,117.30
2018-12-15T14:10:06.001Z,129.30
2018-12-15T14:12:36.578Z,116.10
2018-12-15T14:15:08.421Z,116.33
2018-12-15T14:17:38.892Z,132.57
2018-12-15T14:20:09.580Z,117.00
2018-12-15T14:22:40.196Z,126.50
2018-12-15T14:25:10.854Z,117.77
2018-12-15T14:27:41.578Z,137.00
2018-12-15T14:30:12.279Z,143.70
2018-12-15T14:32:42.852Z,156.43
2018-12-15T14:35:13.460Z,151.77
2018-12-15T14:37:43.987Z,134.10
2018-12-15T14:40:14.410Z,123.83
2018-12-15T14:42:44.984Z,133.57
2018-12-15T14:45:16.086Z,177.37
2018-12-15T14:47:46.409Z,149.10
2018-12-15T14:50:23.171Z,147.57
2018-12-15T14:52:48.898Z,172.87
2018-12-15T14:55:19.743Z,151.33
2018-12-15T14:57:50.399Z,157.53
2018-12-15T15:00:20.741Z,159.83
2018-12-15T15:02:51.384Z,167.77
2018-12-15T15:05:22.564Z,175.67
2018-12-15T15:07:52.996Z,170.20
2018-12-15T15:10:23.389Z,175.47
2018-12-15T15:12:53.692Z,165.70
2018-12-15T15:15:24.667Z,183.00
2018-12-15T15:17:55.096Z,186.90
2018-12-15T15:20:29.745Z,193.83
2018-12-15T15:22:58.110Z,193.80
2018-12-15T15:25:28.647Z,198.97
2018-12-15T15:27:59.308Z,193.33
2018-12-15T15:30:29.911Z,210.57
2018-12-15T15:33:00.175Z,245.97
2018-12-15T15:35:31.683Z,228.27
2018-12-15T15:38:33.648Z,236.47
2018-12-15T15:41:04.094Z,209.63
2018-12-15T15:43:34.512Z,185.47
2018-12-15T15:46:04.975Z,201.50
2018-12-15T15:48:35.315Z,119.70
2018-12-15T15:51:06.101Z,118.27
2018-12-15T15:53:37.026Z,148.37
2018-12-15T15:56:07.769Z,161.50
2018-12-15T15:58:37.840Z,170.60
2018-12-15T16:01:07.550Z,144.90
2018-12-15T16:03:38.022Z,170.07
2018-12-15T16:06:07.886Z,192.83
2018-12-15T16:08:37.698Z,145.47
2018-12-15T16:11:07.439Z,148.03
2018-12-15T16:13:37.111Z,187.80
2018-12-15T16:16:16.503Z,217.63
2018-12-15T16:18:46.292Z,213.93
2018-12-15T16:21:15.951Z,196.20
2018-12-15T16:23:46.278Z,214.80
2018-12-15T16:26:15.979Z,189.87
2018-12-15T16:28:45.753Z,190.33
2018-12-15T16:31:15.339Z,196.13
2018-12-15T16:33:45.083Z,197.03
2018-12-15T16:36:14.844Z,194.13
2018-12-15T16:38:44.547Z,211.17
2018-12-15T16:41:14.239Z,218.07
2018-12-15T16:43:43.912Z,219.33
2018-12-15T16:46:13.563Z,225.67
2018-12-15T16:48:43.382Z,225.33
2018-12-15T16:51:13.114Z,255.17
2018-12-15T16:53:42.889Z,210.47
2018-12-15T16:56:12.564Z,225.17
2018-12-15T16:58:42.835Z,188.43
2018-12-15T17:01:12.532Z,216.63
2018-12-15T17:03:42.201Z,224.13
2018-12-15T17:06:11.788Z,239.07
2018-12-15T17:08:41.423Z,267.83
2018-12-15T17:11:11.101Z,274.43
2018-12-15T17:13:40.759Z,278.10
2018-12-15T17:16:10.416Z,288.20
2018-12-15T17:18:40.093Z,293.03
2018-12-15T17:21:09.661Z,296.60
2018-12-15T17:23:39.356Z,303.23
2018-12-15T17:26:08.923Z,311.60
2018-12-15T17:28:38.477Z,300.37
2018-12-15T17:31:08.124Z,290.60
2018-12-15T17:33:37.799Z,326.43
2018-12-15T17:36:07.489Z,312.50
2018-12-15T17:38:37.139Z,309.70
2018-12-15T17:41:06.801Z,293.10
2018-12-15T17:43:36.447Z,314.17
2018-12-15T17:46:06.098Z,298.27
2018-12-15T17:48:36.015Z,261.47
2018-12-15T17:51:05.685Z,264.37
2018-12-15T17:53:35.336Z,215.23
2018-12-15T17:56:05.039Z,229.67
2018-12-15T17:58:34.625Z,228.70
2018-12-15T18:01:04.872Z,198.70
2018-12-15T18:03:34.705Z,186.47
2018-12-15T18:06:04.443Z,173.93
2018-12-15T18:08:34.174Z,177.33
2018-12-15T18:11:03.936Z,179.47
2018-12-15T18:13:33.768Z,235.60
2018-12-15T18:16:03.439Z,208.80
2018-12-15T18:18:33.110Z,231.53
2018-12-15T18:21:02.928Z,228.43
2018-12-15T18:23:32.700Z,203.13
2018-12-15T18:26:02.356Z,200.40
2018-12-15T18:28:32.019Z,186.67
2018-12-15T18:31:01.553Z,216.17
2018-12-15T18:33:36.909Z,222.77
2018-12-15T18:36:03.124Z,223.77
2018-12-15T18:38:33.039Z,207.77
2018-12-15T18:41:02.693Z,187.27
2018-12-15T18:43:32.779Z,189.77
2018-12-15T18:46:02.511Z,194.53
2018-12-15T18:48:32.226Z,184.03
2018-12-15T18:51:01.989Z,185.07
2018-12-15T18:53:31.724Z,174.07
2018-12-15T18:56:01.439Z,163.63
2018-12-15T18:58:31.143Z,166.93
2018-12-15T19:01:00.914Z,172.27
2018-12-15T19:03:30.858Z,199.57
2018-12-15T19:06:00.648Z,179.90
2018-12-15T19:08:30.324Z,204.57
2018-12-15T19:11:00.082Z,242.03
2018-12-15T19:13:29.734Z,242.77
2018-12-15T19:15:59.408Z,235.23
2018-12-15T19:18:29.182Z,220.30
2018-12-15T19:20:58.925Z,232.80
2018-12-15T19:23:28.595Z,266.17
2018-12-15T19:25:58.275Z,268.60
2018-12-15T19:28:28.587Z,304.03
2018-12-15T19:30:59.143Z,269.17
2018-12-15T19:33:29.546Z,276.63
2018-12-15T19:36:00.202Z,254.77
2018-12-15T19:38:30.738Z,226.97
2018-12-15T19:41:01.488Z,219.60
2018-12-15T19:43:32.217Z,232.70
2018-12-15T19:46:02.874Z,202.70
2018-12-15T19:48:33.582Z,197.40
2018-12-15T19:51:04.119Z,175.93
2018-12-15T19:53:34.711Z,148.03
2018-12-15T19:56:05.070Z,136.00
2018-12-15T19:58:35.589Z,116.67
2018-12-15T20:01:06.201Z,135.23
2018-12-15T20:03:37.069Z,162.33
2018-12-15T20:06:07.880Z,169.57
2018-12-15T20:08:38.668Z,151.00
2018-12-15T20:11:09.180Z,156.53
2018-12-15T20:13:40.288Z,155.17
2018-12-15T20:16:11.105Z,131.97
2018-12-15T20:18:41.665Z,152.53
2018-12-15T20:21:12.275Z,133.00
2018-12-15T20:23:43.120Z,143.17
2018-12-15T20:26:13.465Z,133.90
2018-12-15T20:28:43.845Z,122.00
2018-12-15T20:31:14.465Z,147.23
2018-12-15T20:33:46.247Z,183.17
2018-12-15T20:36:16.750Z,144.53
2018-12-15T20:38:47.064Z,139.93
2018-12-15T20:41:17.485Z,165.63
2018-12-15T20:43:48.415Z,154.20
2018-12-15T20:46:19.004Z,159.00
2018-12-15T20:48:48.690Z,148.90
2018-12-15T20:51:19.236Z,148.30
2018-12-15T20:53:50.120Z,156.67
2018-12-15T20:56:20.564Z,176.37
2018-12-15T20:58:51.184Z,167.00
2018-12-15T21:01:21.484Z,144.50
2018-12-15T21:03:51.926Z,151.80
2018-12-15T21:06:21.987Z,153.50
2018-12-15T21:08:52.831Z,130.30
2018-12-15T21:11:24.283Z,138.87
2018-12-15T21:13:54.995Z,144.00
2018-12-15T21:16:25.366Z,135.53
2018-12-15T21:18:55.714Z,154.73
2018-12-15T21:21:26.319Z,145.97
2018-12-15T21:23:57.847Z,145.57
2018-12-15T21:26:28.449Z,131.77
2018-12-15T21:28:59.215Z,119.37
2018-12-15T21:31:29.718Z,113.47
2018-12-15T21:34:07.552Z,124.17
2018-12-15T21:36:33.364Z,131.30
2018-12-15T21:39:04.081Z,117.87
2018-12-15T21:41:34.367Z,104.63
2018-12-15T21:44:05.760Z,103.80
2018-12-15T21:46:36.102Z,106.70
2018-12-15T21:49:06.676Z,93.00
2018-12-15T21:51:37.064Z,81.87
2018-12-15T21:54:07.684Z,80.87
2018-12-15T21:56:38.423Z,80.93
2018-12-15T21:59:08.479Z,78.77
2018-12-15T22:01:39.231Z,70.67
2018-12-15T22:04:10.656Z,76.80
2018-12-15T22:06:41.404Z,78.37
2018-12-15T22:09:11.952Z,79.37
2018-12-15T22:11:42.589Z,72.07
2018-12-15T22:14:13.326Z,80.97
2018-12-15T22:16:43.859Z,78.00
2018-12-15T22:19:14.593Z,77.07
2018-12-15T22:21:44.871Z,87.70
2018-12-15T22:24:15.755Z,92.83
2018-12-15T22:26:46.176Z,93.20
2018-12-15T22:29:16.643Z,98.70
2018-12-15T22:31:46.907Z,100.33
2018-12-15T22:34:17.787Z,102.10
2018-12-15T22:36:48.376Z,107.47
2018-12-15T22:39:18.921Z,118.30
2018-12-15T22:41:49.754Z,116.33
2018-12-15T22:44:20.485Z,106.57
2018-12-15T22:46:50.994Z,107.80
2018-12-15T22:49:21.440Z,117.87
2018-12-15T22:51:52.096Z,122.60
2018-12-15T22:54:23.245Z,116.20
2018-12-15T22:56:53.843Z,129.57
2018-12-15T22:59:24.245Z,121.70
2018-12-15T23:01:54.895Z,126.67
2018-12-15T23:04:25.842Z,129.90
2018-12-15T23:06:55.911Z,128.67
2018-12-15T23:09:26.401Z,132.07
2018-12-15T23:11:57.147Z,140.77
2018-12-15T23:14:27.995Z,136.30
2018-12-15T23:16:58.219Z,142.60
2018-12-15T23:19:28.526Z,142.87
2018-12-15T23:21:58.613Z,142.17
2018-12-15T23:24:29.435Z,131.33
2018-12-15T23:26:59.774Z,134.27
2018-12-15T23:29:29.961Z,109.70
2018-12-15T23:32:00.337Z,109.10
2018-12-15T23:34:30.787Z,97.53
2018-12-15T23:37:01.279Z,88.50
2018-12-15T23:39:31.728Z,91.80
2018-12-15T23:42:02.248Z,91.27
2018-12-15T23:44:33.527Z,81.37
2018-12-15T23:47:03.945Z,81.20
2018-12-15T23:49:34.553Z,89.63
2018-12-15T23:52:04.964Z,84.90
2018-12-15T23:54:36.063Z,72.23
2018-12-15T23:57:06.691Z,81.60
2018-12-15T23:59:37.118Z,74.80
